sensor_id;sensor_type;location;lat;lon;timestamp;pressure;altitude;pressure_sealevel;temperature;humidity
46718;BME280;32448;44.960;-0.698;2023-07-24T00:00:17;100919.66;;;19.00;100.00
46718;BME280;32448;44.960;-0.698;2023-07-24T00:02:45;100904.63;;;19.02;100.00
46718;BME280;32448;44.960;-0.698;2023-07-24T00:05:12;100913.47;;;19.01;100.00
46718;BME280;32448;44.960;-0.698;2023-07-24T00:07:42;100914.28;;;19.06;100.00
46718;BME280;32448;44.960;-0.698;2023-07-24T00:10:09;100894.91;;;19.03;100.00
46718;BME280;32448;44.960;-0.698;2023-07-24T00:12:37;100886.06;;;19.04;100.00
46718;BME280;32448;44.960;-0.698;2023-07-24T00:15:04;100892.97;;;19.12;100.00
46718;BME280;32448;44.960;-0.698;2023-07-24T00:17:31;100894.81;;;19.10;100.00
46718;BME280;32448;44.960;-0.698;2023-07-24T00:19:58;100896.47;;;19.16;100.00
46718;BME280;32448;44.960;-0.698;2023-07-24T00:22:25;100906.19;;;19.15;100.00
46718;BME280;32448;44.960;-0.698;2023-07-24T00:24:52;100912.41;;;19.13;100.00
46718;BME280;32448;44.960;-0.698;2023-07-24T00:27:20;100901.94;;;19.05;100.00
46718;BME280;32448;44.960;-0.698;2023-07-24T00:29:47;100917.78;;;19.10;100.00
46718;BME280;32448;44.960;-0.698;2023-07-24T00:32:14;100906.31;;;19.09;100.00
46718;BME280;32448;44.960;-0.698;2023-07-24T00:34:41;100916.03;;;19.07;100.00
46718;BME280;32448;44.960;-0.698;2023-07-24T00:37:08;100900.16;;;19.06;100.00
46718;BME280;32448;44.960;-0.698;2023-07-24T00:39:35;100907.25;;;19.05;100.00
46718;BME280;32448;44.960;-0.698;2023-07-24T00:42:03;100900.16;;;19.07;100.00
46718;BME280;32448;44.960;-0.698;2023-07-24T00:44:30;100888.69;;;19.05;100.00
46718;BME280;32448;44.960;-0.698;2023-07-24T00:46:57;100898.38;;;19.08;100.00
46718;BME280;32448;44.960;-0.698;2023-07-24T00:49:24;100898.38;;;19.06;100.00
46718;BME280;32448;44.960;-0.698;2023-07-24T00:51:52;100882.50;;;19.05;100.00
46718;BME280;32448;44.960;-0.698;2023-07-24T00:54:19;100878.13;;;19.04;100.00
46718;BME280;32448;44.960;-0.698;2023-07-24T00:56:46;100875.44;;;19.05;100.00
46718;BME280;32448;44.960;-0.698;2023-07-24T00:59:14;100877.22;;;19.03;100.00
46718;BME280;32448;44.960;-0.698;2023-07-24T01:01:41;100874.59;;;19.03;100.00
46718;BME280;32448;44.960;-0.698;2023-07-24T01:04:09;100870.16;;;19.05;100.00
46718;BME280;32448;44.960;-0.698;2023-07-24T01:06:36;100867.44;;;19.08;100.00
46718;BME280;32448;44.960;-0.698;2023-07-24T01:09:03;100870.97;;;19.09;100.00
46718;BME280;32448;44.960;-0.698;2023-07-24T01:11:36;100866.56;;;19.09;100.00
46718;BME280;32448;44.960;-0.698;2023-07-24T01:17:04;100856.84;;;19.10;100.00
46718;BME280;32448;44.960;-0.698;2023-07-24T01:24:52;100854.06;;;19.16;100.00
46718;BME280;32448;44.960;-0.698;2023-07-24T01:27:27;100856.72;;;19.16;100.00
46718;BME280;32448;44.960;-0.698;2023-07-24T01:29:54;100854.94;;;19.16;100.00
46718;BME280;32448;44.960;-0.698;2023-07-24T01:32:21;100858.41;;;19.21;100.00
46718;BME280;32448;44.960;-0.698;2023-07-24T01:34:48;100847.81;;;19.21;100.00
46718;BME280;32448;44.960;-0.698;2023-07-24T01:37:15;100846.94;;;19.21;100.00
46718;BME280;32448;44.960;-0.698;2023-07-24T01:39:43;100854.00;;;19.20;100.00
46718;BME280;32448;44.960;-0.698;2023-07-24T01:42:11;100854.00;;;19.20;100.00
46718;BME280;32448;44.960;-0.698;2023-07-24T01:44:39;100853.91;;;19.25;100.00
46718;BME280;32448;44.960;-0.698;2023-07-24T01:47:06;100849.50;;;19.24;100.00
46718;BME280;32448;44.960;-0.698;2023-07-24T01:49:33;100850.38;;;19.24;100.00
46718;BME280;32448;44.960;-0.698;2023-07-24T01:52:00;100847.69;;;19.26;100.00
46718;BME280;32448;44.960;-0.698;2023-07-24T01:54:30;100845.91;;;19.28;100.00
46718;BME280;32448;44.960;-0.698;2023-07-24T01:56:57;100840.56;;;19.31;100.00
46718;BME280;32448;44.960;-0.698;2023-07-24T01:59:24;100844.13;;;19.28;100.00
46718;BME280;32448;44.960;-0.698;2023-07-24T02:01:51;100841.50;;;19.27;100.00
46718;BME280;32448;44.960;-0.698;2023-07-24T02:04:18;100836.22;;;19.27;100.00
46718;BME280;32448;44.960;-0.698;2023-07-24T02:06:49;100823.81;;;19.27;100.00
46718;BME280;32448;44.960;-0.698;2023-07-24T02:09:19;100836.19;;;19.28;100.00
46718;BME280;32448;44.960;-0.698;2023-07-24T02:11:46;100838.84;;;19.28;100.00
46718;BME280;32448;44.960;-0.698;2023-07-24T02:14:14;100837.09;;;19.27;100.00
46718;BME280;32448;44.960;-0.698;2023-07-24T02:16:43;100839.66;;;19.32;100.00
46718;BME280;32448;44.960;-0.698;2023-07-24T02:19:11;100834.38;;;19.32;100.00
46718;BME280;32448;44.960;-0.698;2023-07-24T02:21:38;100816.81;;;19.25;100.00
46718;BME280;32448;44.960;-0.698;2023-07-24T02:24:07;100834.38;;;19.32;100.00
46718;BME280;32448;44.960;-0.698;2023-07-24T02:26:34;100830.75;;;19.35;100.00
46718;BME280;32448;44.960;-0.698;2023-07-24T02:29:01;100833.41;;;19.35;100.00
46718;BME280;32448;44.960;-0.698;2023-07-24T02:31:29;100836.06;;;19.35;100.00
46718;BME280;32448;44.960;-0.698;2023-07-24T02:33:56;100846.63;;;19.36;100.00
46718;BME280;32448;44.960;-0.698;2023-07-24T02:36:23;100837.75;;;19.39;100.00
46718;BME280;32448;44.960;-0.698;2023-07-24T02:38:50;100836.03;;;19.36;100.00
46718;BME280;32448;44.960;-0.698;2023-07-24T02:41:17;100836.91;;;19.37;100.00
46718;BME280;32448;44.960;-0.698;2023-07-24T02:43:44;100847.53;;;19.35;100.00
46718;BME280;32448;44.960;-0.698;2023-07-24T02:46:12;100838.72;;;19.35;100.00
46718;BME280;32448;44.960;-0.698;2023-07-24T02:48:39;100843.97;;;19.36;100.00
46718;BME280;32448;44.960;-0.698;2023-07-24T02:51:06;100843.06;;;19.39;100.00
46718;BME280;32448;44.960;-0.698;2023-07-24T02:53:33;100843.91;;;19.41;100.00
46718;BME280;32448;44.960;-0.698;2023-07-24T02:56:01;100840.34;;;19.43;100.00
46718;BME280;32448;44.960;-0.698;2023-07-24T02:58:28;100839.47;;;19.43;100.00
46718;BME280;32448;44.960;-0.698;2023-07-24T03:01:02;100834.09;;;19.44;100.00
46718;BME280;32448;44.960;-0.698;2023-07-24T03:03:30;100831.47;;;19.44;100.00
46718;BME280;32448;44.960;-0.698;2023-07-24T03:05:57;100824.38;;;19.45;100.00
46718;BME280;32448;44.960;-0.698;2023-07-24T03:08:24;100827.91;;;19.48;100.00
46718;BME280;32448;44.960;-0.698;2023-07-24T03:10:51;100826.97;;;19.48;100.00
46718;BME280;32448;44.960;-0.698;2023-07-24T03:13:18;100826.97;;;19.51;100.00
46718;BME280;32448;44.960;-0.698;2023-07-24T03:15:51;100827.84;;;19.51;100.00
46718;BME280;32448;44.960;-0.698;2023-07-24T03:18:18;100825.03;;;19.59;100.00
46718;BME280;32448;44.960;-0.698;2023-07-24T03:20:45;100826.78;;;19.60;100.00
46718;BME280;32448;44.960;-0.698;2023-07-24T03:23:12;100823.25;;;19.59;100.00
46718;BME280;32448;44.960;-0.698;2023-07-24T03:25:40;100831.22;;;19.59;100.00
46718;BME280;32448;44.960;-0.698;2023-07-24T03:28:07;100827.66;;;19.60;100.00
46718;BME280;32448;44.960;-0.698;2023-07-24T03:30:34;100831.16;;;19.62;100.00
46718;BME280;32448;44.960;-0.698;2023-07-24T03:33:02;100825.84;;;19.64;100.00
46718;BME280;32448;44.960;-0.698;2023-07-24T03:35:29;100837.31;;;19.65;100.00
46718;BME280;32448;44.960;-0.698;2023-07-24T03:37:57;100838.19;;;19.65;100.00
46718;BME280;32448;44.960;-0.698;2023-07-24T03:40:25;100844.28;;;19.70;100.00
46718;BME280;32448;44.960;-0.698;2023-07-24T03:42:52;100844.25;;;19.72;100.00
46718;BME280;32448;44.960;-0.698;2023-07-24T03:45:19;100840.59;;;19.77;100.00
46718;BME280;32448;44.960;-0.698;2023-07-24T03:47:52;100844.16;;;19.76;100.00
46718;BME280;32448;44.960;-0.698;2023-07-24T03:50:43;100847.78;;;19.72;100.00
46718;BME280;32448;44.960;-0.698;2023-07-24T03:53:25;100848.66;;;19.73;100.00
46718;BME280;32448;44.960;-0.698;2023-07-24T03:55:57;100846.03;;;19.70;100.00
46718;BME280;32448;44.960;-0.698;2023-07-24T03:58:34;100852.25;;;19.69;100.00
46718;BME280;32448;44.960;-0.698;2023-07-24T04:01:13;100838.09;;;19.70;100.00
46718;BME280;32448;44.960;-0.698;2023-07-24T04:03:50;100845.16;;;19.71;100.00
46718;BME280;32448;44.960;-0.698;2023-07-24T04:06:23;100846.03;;;19.70;100.00
46718;BME280;32448;44.960;-0.698;2023-07-24T04:08:50;100848.81;;;19.65;100.00
46718;BME280;32448;44.960;-0.698;2023-07-24T04:11:17;100839.13;;;19.62;100.00
46718;BME280;32448;44.960;-0.698;2023-07-24T04:13:45;100841.81;;;19.59;100.00
46718;BME280;32448;44.960;-0.698;2023-07-24T04:16:13;100851.59;;;19.56;100.00
46718;BME280;32448;44.960;-0.698;2023-07-24T04:18:40;100849.91;;;19.53;100.00
46718;BME280;32448;44.960;-0.698;2023-07-24T04:21:07;100847.31;;;19.49;100.00
46718;BME280;32448;44.960;-0.698;2023-07-24T04:23:34;100856.19;;;19.45;100.00
46718;BME280;32448;44.960;-0.698;2023-07-24T04:26:03;100855.47;;;19.37;100.00
46718;BME280;32448;44.960;-0.698;2023-07-24T04:28:30;100857.28;;;19.33;100.00
46718;BME280;32448;44.960;-0.698;2023-07-24T04:31:00;100861.75;;;19.31;100.00
46718;BME280;32448;44.960;-0.698;2023-07-24T04:33:28;100861.81;;;19.28;100.00
46718;BME280;32448;44.960;-0.698;2023-07-24T04:35:57;100861.84;;;19.25;100.00
46718;BME280;32448;44.960;-0.698;2023-07-24T04:38:24;100867.19;;;19.22;100.00
46718;BME280;32448;44.960;-0.698;2023-07-24T04:40:51;100862.81;;;19.21;100.00
46718;BME280;32448;44.960;-0.698;2023-07-24T04:43:22;100868.13;;;19.21;100.00
46718;BME280;32448;44.960;-0.698;2023-07-24T04:45:50;100871.69;;;19.18;100.00
46718;BME280;32448;44.960;-0.698;2023-07-24T04:48:17;100874.38;;;19.17;100.00
46718;BME280;32448;44.960;-0.698;2023-07-24T04:50:44;100875.25;;;19.17;100.00
46718;BME280;32448;44.960;-0.698;2023-07-24T04:53:12;100881.41;;;19.18;100.00
46718;BME280;32448;44.960;-0.698;2023-07-24T04:55:39;100872.56;;;19.19;100.00
46718;BME280;32448;44.960;-0.698;2023-07-24T04:58:06;100885.81;;;19.20;100.00
46718;BME280;32448;44.960;-0.698;2023-07-24T05:00:33;100881.38;;;19.21;100.00
46718;BME280;32448;44.960;-0.698;2023-07-24T05:03:10;100886.69;;;19.21;100.00
46718;BME280;32448;44.960;-0.698;2023-07-24T05:05:38;100881.38;;;19.21;100.00
46718;BME280;32448;44.960;-0.698;2023-07-24T05:08:10;100876.97;;;19.21;100.00
46718;BME280;32448;44.960;-0.698;2023-07-24T05:10:37;100884.03;;;19.21;100.00
46718;BME280;32448;44.960;-0.698;2023-07-24T05:13:05;100888.41;;;19.22;100.00
46718;BME280;32448;44.960;-0.698;2023-07-24T05:15:32;100890.13;;;19.24;100.00
46718;BME280;32448;44.960;-0.698;2023-07-24T05:17:59;100892.75;;;19.26;100.00
46718;BME280;32448;44.960;-0.698;2023-07-24T05:20:34;100893.66;;;19.25;100.00
46718;BME280;32448;44.960;-0.698;2023-07-24T05:23:01;100888.34;;;19.25;100.00
46718;BME280;32448;44.960;-0.698;2023-07-24T05:25:29;100895.41;;;19.26;100.00
46718;BME280;32448;44.960;-0.698;2023-07-24T05:27:56;100896.25;;;19.28;100.00
46718;BME280;32448;44.960;-0.698;2023-07-24T05:30:27;100898.88;;;19.31;100.00
46718;BME280;32448;44.960;-0.698;2023-07-24T05:32:55;100912.13;;;19.31;100.00
46718;BME280;32448;44.960;-0.698;2023-07-24T05:35:27;100907.63;;;19.35;100.00
46718;BME280;32448;44.960;-0.698;2023-07-24T05:37:55;100907.53;;;19.41;100.00
46718;BME280;32448;44.960;-0.698;2023-07-24T05:40:36;100916.25;;;19.47;100.00
46718;BME280;32448;44.960;-0.698;2023-07-24T05:43:09;100918.88;;;19.50;100.00
46718;BME280;32448;44.960;-0.698;2023-07-24T05:45:36;100916.22;;;19.52;100.00
46718;BME280;32448;44.960;-0.698;2023-07-24T05:48:04;100912.59;;;19.56;100.00
46718;BME280;32448;44.960;-0.698;2023-07-24T05:50:32;100922.22;;;19.61;100.00
46718;BME280;32448;44.960;-0.698;2023-07-24T05:53:00;100926.63;;;19.64;100.00
46718;BME280;32448;44.960;-0.698;2023-07-24T05:55:28;100917.75;;;19.65;100.00
46718;BME280;32448;44.960;-0.698;2023-07-24T05:58:00;100915.94;;;19.67;100.00
46718;BME280;32448;44.960;-0.698;2023-07-24T06:00:30;100914.03;;;19.75;100.00
46718;BME280;32448;44.960;-0.698;2023-07-24T06:02:57;100921.16;;;19.72;100.00
46718;BME280;32448;44.960;-0.698;2023-07-24T06:05:42;100922.81;;;19.77;100.00
46718;BME280;32448;44.960;-0.698;2023-07-24T06:08:10;100920.13;;;19.79;100.00
46718;BME280;32448;44.960;-0.698;2023-07-24T06:10:40;100913.03;;;19.81;100.00
46718;BME280;32448;44.960;-0.698;2023-07-24T06:13:08;100909.50;;;19.80;100.00
46718;BME280;32448;44.960;-0.698;2023-07-24T06:15:38;100907.69;;;19.84;100.00
46718;BME280;32448;44.960;-0.698;2023-07-24T06:18:05;100922.59;;;19.89;100.00
46718;BME280;32448;44.960;-0.698;2023-07-24T06:20:33;100913.75;;;19.89;100.00
46718;BME280;32448;44.960;-0.698;2023-07-24T06:23:00;100912.81;;;19.91;100.00
46718;BME280;32448;44.960;-0.698;2023-07-24T06:25:30;100917.22;;;19.94;100.00
46718;BME280;32448;44.960;-0.698;2023-07-24T06:27:59;100919.81;;;19.97;100.00
46718;BME280;32448;44.960;-0.698;2023-07-24T06:30:27;100916.19;;;19.99;100.00
46718;BME280;32448;44.960;-0.698;2023-07-24T06:32:55;100923.22;;;20.02;100.00
46718;BME280;32448;44.960;-0.698;2023-07-24T06:35:24;100925.81;;;20.07;100.00
46718;BME280;32448;44.960;-0.698;2023-07-24T06:37:52;100921.34;;;20.09;100.00
46718;BME280;32448;44.960;-0.698;2023-07-24T06:40:22;100921.34;;;20.09;100.00
46718;BME280;32448;44.960;-0.698;2023-07-24T06:42:50;100916.84;;;20.11;100.00
46718;BME280;32448;44.960;-0.698;2023-07-24T06:45:20;100931.81;;;20.16;100.00
46718;BME280;32448;44.960;-0.698;2023-07-24T06:47:47;100930.94;;;20.14;100.00
46718;BME280;32448;44.960;-0.698;2023-07-24T06:50:22;100939.81;;;20.13;100.00
46718;BME280;32448;44.960;-0.698;2023-07-24T06:52:54;100942.47;;;20.13;100.00
46718;BME280;32448;44.960;-0.698;2023-07-24T06:55:24;100942.44;;;20.15;100.00
46718;BME280;32448;44.960;-0.698;2023-07-24T06:57:53;100942.47;;;20.13;100.00
46718;BME280;32448;44.960;-0.698;2023-07-24T07:00:25;100944.22;;;20.14;100.00
46718;BME280;32448;44.960;-0.698;2023-07-24T07:02:54;100944.16;;;20.17;100.00
46718;BME280;32448;44.960;-0.698;2023-07-24T07:05:23;100947.72;;;20.18;100.00
46718;BME280;32448;44.960;-0.698;2023-07-24T07:07:56;100954.66;;;20.23;100.00
46718;BME280;32448;44.960;-0.698;2023-07-24T07:10:24;100959.06;;;20.24;100.00
46718;BME280;32448;44.960;-0.698;2023-07-24T07:12:52;100960.81;;;20.25;100.00
46718;BME280;32448;44.960;-0.698;2023-07-24T07:15:24;100967.88;;;20.26;100.00
46718;BME280;32448;44.960;-0.698;2023-07-24T07:17:57;100966.94;;;20.29;100.00
46718;BME280;32448;44.960;-0.698;2023-07-24T07:20:25;100963.41;;;20.28;100.00
46718;BME280;32448;44.960;-0.698;2023-07-24T07:22:56;100972.31;;;20.26;100.00
46718;BME280;32448;44.960;-0.698;2023-07-24T07:25:24;100968.91;;;20.19;100.00
46718;BME280;32448;44.960;-0.698;2023-07-24T07:28:01;100972.47;;;20.18;100.00
46718;BME280;32448;44.960;-0.698;2023-07-24T07:30:53;100983.06;;;20.20;100.00
46718;BME280;32448;44.960;-0.698;2023-07-24T07:33:21;100981.34;;;20.17;100.00
46718;BME280;32448;44.960;-0.698;2023-07-24T07:35:48;100982.25;;;20.15;100.00
46718;BME280;32448;44.960;-0.698;2023-07-24T07:38:17;100976.94;;;20.16;100.00
46718;BME280;32448;44.960;-0.698;2023-07-24T07:40:46;100968.06;;;20.17;100.00
46718;BME280;32448;44.960;-0.698;2023-07-24T07:43:15;100968.81;;;20.24;100.00
46718;BME280;32448;44.960;-0.698;2023-07-24T07:45:42;100961.63;;;20.29;100.00
46718;BME280;32448;44.960;-0.698;2023-07-24T07:48:10;100965.06;;;20.34;100.00
46718;BME280;32448;44.960;-0.698;2023-07-24T07:50:38;100963.09;;;20.45;100.00
46718;BME280;32448;44.960;-0.698;2023-07-24T07:53:06;100957.63;;;20.54;100.00
46718;BME280;32448;44.960;-0.698;2023-07-24T07:55:34;100960.84;;;20.68;100.00
46718;BME280;32448;44.960;-0.698;2023-07-24T07:58:02;100960.34;;;20.90;100.00
46718;BME280;32448;44.960;-0.698;2023-07-24T08:00:30;100953.81;;;21.06;100.00
46718;BME280;32448;44.960;-0.698;2023-07-24T08:02:58;100942.00;;;21.18;100.00
46718;BME280;32448;44.960;-0.698;2023-07-24T08:05:25;100943.66;;;21.23;100.00
46718;BME280;32448;44.960;-0.698;2023-07-24T08:07:53;100942.69;;;21.27;100.00
46718;BME280;32448;44.960;-0.698;2023-07-24T08:10:22;100950.16;;;21.47;100.00
46718;BME280;32448;44.960;-0.698;2023-07-24T08:12:59;100944.47;;;21.62;100.00
46718;BME280;32448;44.960;-0.698;2023-07-24T08:15:27;100951.34;;;21.71;100.00
46718;BME280;32448;44.960;-0.698;2023-07-24T08:17:57;100947.78;;;21.70;100.00
46718;BME280;32448;44.960;-0.698;2023-07-24T08:20:26;100953.94;;;21.74;100.00
46718;BME280;32448;44.960;-0.698;2023-07-24T08:22:53;100946.69;;;21.79;100.00
46718;BME280;32448;44.960;-0.698;2023-07-24T08:25:24;100947.34;;;21.87;100.00
46718;BME280;32448;44.960;-0.698;2023-07-24T08:27:52;100948.78;;;22.00;100.00
46718;BME280;32448;44.960;-0.698;2023-07-24T08:30:35;100941.38;;;22.11;100.00
46718;BME280;32448;44.960;-0.698;2023-07-24T08:33:02;100944.97;;;22.10;100.00
46718;BME280;32448;44.960;-0.698;2023-07-24T08:35:35;100945.75;;;22.14;100.00
46718;BME280;32448;44.960;-0.698;2023-07-24T08:38:02;100943.97;;;22.14;100.00
46718;BME280;32448;44.960;-0.698;2023-07-24T08:40:30;100948.53;;;22.09;100.00
46718;BME280;32448;44.960;-0.698;2023-07-24T08:42:58;100963.81;;;22.03;100.00
46718;BME280;32448;44.960;-0.698;2023-07-24T08:45:29;100966.63;;;21.97;100.00
46718;BME280;32448;44.960;-0.698;2023-07-24T08:48:00;100984.81;;;21.79;100.00
46718;BME280;32448;44.960;-0.698;2023-07-24T08:50:29;100980.06;;;21.57;100.00
46718;BME280;32448;44.960;-0.698;2023-07-24T08:52:57;100978.72;;;21.40;100.00
46718;BME280;32448;44.960;-0.698;2023-07-24T08:55:33;100982.34;;;21.36;100.00
46718;BME280;32448;44.960;-0.698;2023-07-24T08:58:01;100985.84;;;21.38;100.00
46718;BME280;32448;44.960;-0.698;2023-07-24T09:00:46;100988.53;;;21.37;100.00
46718;BME280;32448;44.960;-0.698;2023-07-24T09:03:14;100983.19;;;21.38;100.00
46718;BME280;32448;44.960;-0.698;2023-07-24T09:05:49;100983.38;;;21.31;100.00
46718;BME280;32448;44.960;-0.698;2023-07-24T09:08:27;100982.22;;;21.42;100.00
46718;BME280;32448;44.960;-0.698;2023-07-24T09:11:01;100990.06;;;21.47;100.00
46718;BME280;32448;44.960;-0.698;2023-07-24T09:13:30;100978.56;;;21.47;100.00
46718;BME280;32448;44.960;-0.698;2023-07-24T09:16:00;100981.88;;;21.55;100.00
46718;BME280;32448;44.960;-0.698;2023-07-24T09:18:38;100985.22;;;21.64;100.00
46718;BME280;32448;44.960;-0.698;2023-07-24T09:21:07;100979.53;;;21.78;100.00
46718;BME280;32448;44.960;-0.698;2023-07-24T09:23:34;100973.22;;;21.82;100.00
46718;BME280;32448;44.960;-0.698;2023-07-24T09:26:05;100978.47;;;21.85;100.00
46718;BME280;32448;44.960;-0.698;2023-07-24T09:28:34;100977.19;;;22.00;100.00
46718;BME280;32448;44.960;-0.698;2023-07-24T09:31:02;100970.56;;;22.16;100.00
46718;BME280;32448;44.960;-0.698;2023-07-24T09:33:34;100971.53;;;22.44;100.00
46718;BME280;32448;44.960;-0.698;2023-07-24T09:36:13;100961.94;;;22.68;100.00
46718;BME280;32448;44.960;-0.698;2023-07-24T09:38:40;100953.53;;;22.83;100.00
46718;BME280;32448;44.960;-0.698;2023-07-24T09:41:08;100959.34;;;22.96;100.00
46718;BME280;32448;44.960;-0.698;2023-07-24T09:43:41;100949.28;;;23.06;100.00
46718;BME280;32448;44.960;-0.698;2023-07-24T09:46:11;100941.28;;;23.32;100.00
46718;BME280;32448;44.960;-0.698;2023-07-24T09:48:39;100945.94;;;23.53;100.00
46718;BME280;32448;44.960;-0.698;2023-07-24T09:51:28;100939.69;;;23.54;100.00
46718;BME280;32448;44.960;-0.698;2023-07-24T09:53:58;100931.84;;;23.48;100.00
46718;BME280;32448;44.960;-0.698;2023-07-24T09:56:25;100936.91;;;23.57;100.00
46718;BME280;32448;44.960;-0.698;2023-07-24T09:59:09;100945.69;;;23.61;100.00
46718;BME280;32448;44.960;-0.698;2023-07-24T10:01:37;100940.94;;;23.43;100.00
46718;BME280;32448;44.960;-0.698;2023-07-24T10:04:05;100941.09;;;23.38;100.00
46718;BME280;32448;44.960;-0.698;2023-07-24T10:06:34;100948.06;;;23.42;100.00
46718;BME280;32448;44.960;-0.698;2023-07-24T10:09:01;100952.59;;;23.67;100.00
46718;BME280;32448;44.960;-0.698;2023-07-24T10:11:31;100945.34;;;23.72;100.00
46718;BME280;32448;44.960;-0.698;2023-07-24T10:14:03;100948.91;;;23.71;100.00
46718;BME280;32448;44.960;-0.698;2023-07-24T10:16:33;100955.50;;;23.61;100.00
46718;BME280;32448;44.960;-0.698;2023-07-24T10:19:01;100952.66;;;23.65;100.00
46718;BME280;32448;44.960;-0.698;2023-07-24T10:21:28;100953.91;;;23.55;100.00
46718;BME280;32448;44.960;-0.698;2023-07-24T10:23:59;100949.47;;;23.54;100.00
46718;BME280;32448;44.960;-0.698;2023-07-24T10:26:34;100957.47;;;23.28;100.00
46718;BME280;32448;44.960;-0.698;2023-07-24T10:29:06;100950.28;;;23.30;100.00
46718;BME280;32448;44.960;-0.698;2023-07-24T10:31:37;100944.28;;;23.49;100.00
46718;BME280;32448;44.960;-0.698;2023-07-24T10:34:06;100950.13;;;23.62;100.00
46718;BME280;32448;44.960;-0.698;2023-07-24T10:36:39;100943.63;;;23.69;100.00
46718;BME280;32448;44.960;-0.698;2023-07-24T10:39:15;100945.56;;;23.90;100.00
46718;BME280;32448;44.960;-0.698;2023-07-24T10:41:45;100951.28;;;24.05;100.00
46718;BME280;32448;44.960;-0.698;2023-07-24T10:44:13;100950.84;;;23.92;100.00
46718;BME280;32448;44.960;-0.698;2023-07-24T10:46:43;100946.13;;;23.99;100.00
46718;BME280;32448;44.960;-0.698;2023-07-24T10:49:22;100942.00;;;23.90;100.00
46718;BME280;32448;44.960;-0.698;2023-07-24T10:51:57;100944.84;;;23.85;100.00
46718;BME280;32448;44.960;-0.698;2023-07-24T10:57:14;100946.53;;;23.88;100.00
46718;BME280;32448;44.960;-0.698;2023-07-24T10:59:45;100946.16;;;24.23;100.00
46718;BME280;32448;44.960;-0.698;2023-07-24T11:02:13;100951.44;;;24.50;100.00
46718;BME280;32448;44.960;-0.698;2023-07-24T11:05:00;100948.81;;;24.48;100.00
46718;BME280;32448;44.960;-0.698;2023-07-24T11:07:32;100949.22;;;24.61;100.00
46718;BME280;32448;44.960;-0.698;2023-07-24T11:10:03;100939.72;;;24.99;100.00
46718;BME280;32448;44.960;-0.698;2023-07-24T11:12:30;100934.25;;;25.24;100.00
46718;BME280;32448;44.960;-0.698;2023-07-24T11:14:58;100930.75;;;25.44;100.00
46718;BME280;32448;44.960;-0.698;2023-07-24T11:17:36;100928.88;;;25.46;100.00
46718;BME280;32448;44.960;-0.698;2023-07-24T11:22:40;100925.00;;;25.53;100.00
46718;BME280;32448;44.960;-0.698;2023-07-24T11:25:14;100926.25;;;25.66;100.00
46718;BME280;32448;44.960;-0.698;2023-07-24T11:27:42;100929.28;;;25.79;100.00
46718;BME280;32448;44.960;-0.698;2023-07-24T11:30:11;100921.66;;;25.90;100.00
46718;BME280;32448;44.960;-0.698;2023-07-24T11:32:41;100911.41;;;25.99;100.00
46718;BME280;32448;44.960;-0.698;2023-07-24T11:35:21;100908.97;;;26.14;100.00
46718;BME280;32448;44.960;-0.698;2023-07-24T11:37:49;100922.94;;;26.20;100.00
46718;BME280;32448;44.960;-0.698;2023-07-24T11:40:18;100930.59;;;26.09;100.00
46718;BME280;32448;44.960;-0.698;2023-07-24T11:42:50;100929.97;;;25.84;100.00
46718;BME280;32448;44.960;-0.698;2023-07-24T11:45:21;100927.47;;;25.79;100.00
46718;BME280;32448;44.960;-0.698;2023-07-24T11:47:53;100925.66;;;25.80;100.00
46718;BME280;32448;44.960;-0.698;2023-07-24T11:50:47;100910.13;;;25.88;100.00
46718;BME280;32448;44.960;-0.698;2023-07-24T11:53:21;100917.09;;;25.92;100.00
46718;BME280;32448;44.960;-0.698;2023-07-24T11:55:59;100919.34;;;26.21;100.00
46718;BME280;32448;44.960;-0.698;2023-07-24T11:58:38;100920.13;;;26.43;100.00
46718;BME280;32448;44.960;-0.698;2023-07-24T12:01:05;100911.16;;;26.24;100.00
46718;BME280;32448;44.960;-0.698;2023-07-24T12:03:33;100909.03;;;26.32;100.00
46718;BME280;32448;44.960;-0.698;2023-07-24T12:06:01;100914.91;;;26.20;100.00
46718;BME280;32448;44.960;-0.698;2023-07-24T12:08:36;100913.84;;;26.24;100.00
46718;BME280;32448;44.960;-0.698;2023-07-24T12:11:15;100909.56;;;26.20;100.00
46718;BME280;32448;44.960;-0.698;2023-07-24T12:13:42;100902.88;;;26.30;100.00
46718;BME280;32448;44.960;-0.698;2023-07-24T12:16:24;100902.72;;;26.33;100.00
46718;BME280;32448;44.960;-0.698;2023-07-24T12:18:51;100906.28;;;26.53;100.00
46718;BME280;32448;44.960;-0.698;2023-07-24T12:21:19;100903.47;;;26.56;100.00
46718;BME280;32448;44.960;-0.698;2023-07-24T12:23:53;100908.53;;;26.43;100.00
46718;BME280;32448;44.960;-0.698;2023-07-24T12:26:23;100891.56;;;26.42;100.00
46718;BME280;32448;44.960;-0.698;2023-07-24T12:28:54;100899.34;;;26.49;100.00
46718;BME280;32448;44.960;-0.698;2023-07-24T12:31:22;100903.34;;;26.40;100.00
46718;BME280;32448;44.960;-0.698;2023-07-24T12:33:53;100914.28;;;26.73;100.00
46718;BME280;32448;44.960;-0.698;2023-07-24T12:36:38;100907.25;;;26.70;100.00
46718;BME280;32448;44.960;-0.698;2023-07-24T12:39:09;100911.97;;;26.84;100.00
46718;BME280;32448;44.960;-0.698;2023-07-24T12:41:38;100908.78;;;26.95;100.00
46718;BME280;32448;44.960;-0.698;2023-07-24T12:44:17;100911.72;;;26.89;100.00
46718;BME280;32448;44.960;-0.698;2023-07-24T12:46:44;100911.50;;;26.56;100.00
46718;BME280;32448;44.960;-0.698;2023-07-24T12:49:12;100913.38;;;26.35;100.00
46718;BME280;32448;44.960;-0.698;2023-07-24T12:51:42;100916.75;;;26.40;100.00
46718;BME280;32448;44.960;-0.698;2023-07-24T12:54:25;100916.13;;;26.33;100.00
46718;BME280;32448;44.960;-0.698;2023-07-24T12:57:12;100917.97;;;26.70;100.00